LSMPLSGC

Guest
Details From LSMP - Payerne
To LSGC - Les Eplatures
Flight Number -
Tags generated
Created
Modified
Stats Distance 15 nm / 28 km
Max Altitude 0 ft / 0 m
Waypoints 3
Social Downloads 1
Likes 0
Share VATSIM

Download

Looking for another format? Having issues loading an existing format? Contact us
Advertisement - Login to hide

Notes

Basic altitude profile: - Ascent Rate: 2500ft/min - Ascent Speed: 250kts - Cruise Altitude: 10000ft - Cruise Speed: 420kts - Descent Rate: 1500ft/min - Descent Speed: 250kts Options: - Use NATs: yes - Use PACOTS: yes - Use low airways: yes - Use high airways: yes

Route

LSMP LPS LSGC

ID Type Via Altitude Latitude Longitude Leg Dist Tot Dist Heading (true) Name
O LSMP APT - 0 ft / 0 m 46.84320˚ 6.91506˚ - 0 nm - Payerne
LPS NDB - 0 ft / 0 m 47.08367˚ 6.79389˚ 15 nm 15 nm 341° / 341° LES EPLATURES NDB
O LSGC APT - 0 ft / 0 m 47.08415˚ 6.79350˚ 0 nm 15 nm 331° / 331° Les Eplatures

Altitude Profile

Advertisement - Login to hide

LSMP

Details ICAO LSMP
Name Payerne
Region Switzerland
Timezone Europe/Zurich (UTC+1.0)
Stats Elevation 1,465 ft / 447 m (AMSL)
Location 46.843204° 6.915057°
Runways 1
Magnetic Variation 1.936° E

METAR

LSMP 172050Z AUTO 21004KT 9999NDV FEW028 M01/M02 Q1028 RMK

Decode

TAF

Not found

Departure Runways

ID Width Length Bearing (true) Bearing (mag) Surface Threshold Offset Overrun Length
05 131 ft / 40 m 9,365 ft / 2,854 m 48.29° 46.35° Asphalt 1,365 ft / 416 m 610 ft / 186 m
23 131 ft / 40 m 9,365 ft / 2,854 m 228.31° 226.37° Asphalt 1,358 ft / 414 m 640 ft / 195 m

LSGC

Details ICAO LSGC
Name Les Eplatures
Region Switzerland
Timezone Europe/Zurich (UTC+1.0)
Stats Elevation 3,368 ft / 1,027 m (AMSL)
Location 47.084154° 6.793497°
Runways 1
Magnetic Variation 1.901° E

METAR

LSGC 172050Z AUTO VRB02KT 9999 BKN018 M05/M05 Q1025

Decode

TAF

Not found

Destination Runways

ID Width Length Bearing (true) Bearing (mag) Surface Threshold Offset Overrun Length
06 95 ft / 29 m 3,722 ft / 1,135 m 53.96° 52.06° Asphalt 230 ft / 70 m 0 ft / 0 m
24 95 ft / 29 m 3,722 ft / 1,135 m 233.97° 232.07° Asphalt 328 ft / 100 m 0 ft / 0 m

Approach Navaids

Runway Type Ident Frequency Range Bearing (true) Bearing (mag) Slope Elevation
24 Localiser ICF 108.15 MHz 18 nm / 33 km 233.97° 232.07° - 3,376 ft / 1,029 m (AMSL)
24 Glidescope ICF 108.15 MHz 10 nm / 19 km 233.97° 232.07° 3.50° 3,371 ft / 1,027 m (AMSL)